Observation data for Reese Center on 11/17/2019      Previous  Date       Current Mesonet Observations  Soil Data  Daily Summary Page  Observations in Plain Language
KREE 170600Z 23006KT 08/03 A2997 RMK A01 T00780027  RH  071%=      5-min Rain = 0
KREE 170605Z 23007KT 08/03 A2997 RMK A01 T00780027  RH  071%=      5-min Rain = 0
KREE 170610Z 23008KT 08/03 A2997 RMK A01 T00790026  RH  070%=      5-min Rain = 0
KREE 170615Z 23008KT 08/03 A2997 RMK A01 T00780025  RH  070%=      5-min Rain = 0
KREE 170620Z 22008KT 08/02 A2997 RMK A01 T00750024  RH  071%=      5-min Rain = 0
KREE 170625Z 23008KT 07/03 A2997 RMK A01 T00720025  RH  073%=      5-min Rain = 0
KREE 170630Z 23008KT 07/03 A2997 RMK A01 T00720026  RH  073%=      5-min Rain = 0
KREE 170635Z 22007KT 07/02 A2997 RMK A01 T00680023  RH  074%=      5-min Rain = 0
KREE 170640Z 23007KT 06/02 A2997 RMK A01 T00620021  RH  076%=      5-min Rain = 0
KREE 170645Z 24006KT 06/02 A2997 RMK A01 T00590020  RH  077%=      5-min Rain = 0
KREE 170650Z 25006KT 06/02 A2997 RMK A01 T00560020  RH  078%=      5-min Rain = 0
KREE 170655Z 28005KT 06/02 A2998 RMK A01 T00550018  RH  078%=      5-min Rain = 0
KREE 170700Z 30005KT 05/01 A2998 RMK A01 T00470013  RH  079%=      5-min Rain = 0
KREE 170705Z 31006KT 04/01 A2998 RMK A01 T00430012  RH  081%=      5-min Rain = 0
KREE 170710Z 32006KT 04/01 A2998 RMK A01 T00410012  RH  082%=      5-min Rain = 0
KREE 170715Z 32006KT 04/01 A2998 RMK A01 T00430013  RH  082%=      5-min Rain = 0
KREE 170720Z 32006KT 04/01 A2998 RMK A01 T00440013  RH  081%=      5-min Rain = 0
KREE 170725Z 33006KT 04/01 A2998 RMK A01 T00430011  RH  081%=      5-min Rain = 0
KREE 170730Z 33006KT 04/01 A2998 RMK A01 T00410010  RH  081%=      5-min Rain = 0
KREE 170735Z 33005KT 04/01 A2998 RMK A01 T00400008  RH  081%=      5-min Rain = 0
KREE 170740Z 31004KT 04/01 A2997 RMK A01 T00390007  RH  081%=      5-min Rain = 0
KREE 170745Z 29004KT 04/01 A2997 RMK A01 T00390008  RH  081%=      5-min Rain = 0
KREE 170750Z 28003KT 04/01 A2996 RMK A01 T00380006  RH  081%=      5-min Rain = 0
KREE 170755Z 26004KT 04/01 A2996 RMK A01 T00360006  RH  082%=      5-min Rain = 0
KREE 170800Z 25005KT 03/00 A2996 RMK A01 T00300001  RH  082%=      5-min Rain = 0
KREE 170805Z 26006KT 03/M00 A2996 RMK A01 T00261001  RH  083%=      5-min Rain = 0
KREE 170810Z 27005KT 02/M00 A2996 RMK A01 T00241003  RH  083%=      5-min Rain = 0
KREE 170815Z 27005KT 02/M00 A2996 RMK A01 T00221004  RH  084%=      5-min Rain = 0
KREE 170820Z 28006KT 03/00 A2996 RMK A01 T00260001  RH  084%=      5-min Rain = 0
KREE 170825Z 28006KT 03/00 A2996 RMK A01 T00280001  RH  083%=      5-min Rain = 0
KREE 170830Z 29008KT 03/00 A2997 RMK A01 T00290001  RH  082%=      5-min Rain = 0
KREE 170835Z 30009KT 03/M00 A2997 RMK A01 T00271001  RH  083%=      5-min Rain = 0
KREE 170840Z 30009KT 03/00 A2997 RMK A01 T00320004  RH  083%=      5-min Rain = 0
KREE 170845Z 30010KT 03/00 A2997 RMK A01 T00330002  RH  081%=      5-min Rain = 0
KREE 170850Z 30009KT 04/00 A2997 RMK A01 T00350003  RH  080%=      5-min Rain = 0
KREE 170855Z 31010KT 04/00 A2997 RMK A01 T00350000  RH  079%=      5-min Rain = 0
KREE 170900Z 32009KT 04/00 A2998 RMK A01 T00360003  RH  080%=      5-min Rain = 0
KREE 170905Z 33011KT 04/01 A2998 RMK A01 T00440007  RH  078%=      5-min Rain = 0
KREE 170910Z 33011KT 05/01 A2998 RMK A01 T00520007  RH  074%=      5-min Rain = 0
KREE 170915Z 34014KT 06/01 A2998 RMK A01 T00590008  RH  070%=      5-min Rain = 0
KREE 170920Z 36016G21KT 07/01 A2998 RMK A01 T00660006  RH  066%=      5-min Rain = 0
KREE 170925Z 00017G22KT 07/00 A2999 RMK A01 T00700004  RH  064%=      5-min Rain = 0
KREE 170930Z 00015KT 07/00 A2999 RMK A01 T00690003  RH  063%=      5-min Rain = 0
KREE 170935Z 01015KT 07/00 A2999 RMK A01 T00670002  RH  064%=      5-min Rain = 0
KREE 170940Z 01015KT 07/00 A30 RMK A01 T00670002  RH  064%=      5-min Rain = 0
KREE 170945Z 01015KT 07/00 A30 RMK A01 T00680001  RH  063%=      5-min Rain = 0
KREE 170950Z 01015KT 07/00 A3001 RMK A01 T00690000  RH  062%=      5-min Rain = 0
KREE 170955Z 00014KT 07/00 A3001 RMK A01 T006800-0  RH  062%=      5-min Rain = 0
KREE 171000Z 00014KT 07/M00 A3002 RMK A01 T00691001  RH  062%=      5-min Rain = 0
KREE 171005Z 00014KT 07/M00 A3002 RMK A01 T00691002  RH  061%=      5-min Rain = 0
KREE 171010Z 00014KT 07/M00 A3002 RMK A01 T00691003  RH  060%=      5-min Rain = 0
KREE 171015Z 00016G22KT 07/M01 A3003 RMK A01 T00721005  RH  059%=      5-min Rain = 0
KREE 171020Z 01018G24KT 08/M01 A3003 RMK A01 T00771007  RH  056%=      5-min Rain = 0
KREE 171025Z 00019KT 08/M01 A3003 RMK A01 T00801009  RH  054%=      5-min Rain = 0
KREE 171030Z 01019G27KT 08/M01 A3003 RMK A01 T00821011  RH  053%=      5-min Rain = 0
KREE 171035Z 01018G23KT 08/M01 A3003 RMK A01 T00801011  RH  053%=      5-min Rain = 0
KREE 171040Z 01019KT 08/M01 A3003 RMK A01 T00801011  RH  053%=      5-min Rain = 0
KREE 171045Z 01018G23KT 08/M01 A3003 RMK A01 T00781011  RH  054%=      5-min Rain = 0
KREE 171050Z 01017G23KT 08/M01 A3003 RMK A01 T00781011  RH  054%=      5-min Rain = 0
KREE 171055Z 02017G22KT 08/M01 A3003 RMK A01 T00771011  RH  055%=      5-min Rain = 0
KREE 171100Z 01017G23KT 08/M01 A3004 RMK A01 T00761011  RH  055%=      5-min Rain = 0
KREE 171105Z 01016G21KT 08/M01 A3004 RMK A01 T00751010  RH  055%=      5-min Rain = 0
KREE 171110Z 01017G23KT 08/M01 A3005 RMK A01 T00751010  RH  055%=      5-min Rain = 0
KREE 171115Z 01018G23KT 08/M01 A3006 RMK A01 T00751010  RH  055%=      5-min Rain = 0
KREE 171120Z 01017KT 08/M01 A3006 RMK A01 T00751010  RH  056%=      5-min Rain = 0
KREE 171125Z 01015G20KT 07/M01 A3006 RMK A01 T00721010  RH  057%=      5-min Rain = 0
KREE 171130Z 01016G23KT 07/M01 A3006 RMK A01 T00711009  RH  057%=      5-min Rain = 0
KREE 171135Z 01016KT 07/M01 A3006 RMK A01 T00711009  RH  057%=      5-min Rain = 0
KREE 171140Z 01017G23KT 07/M01 A3006 RMK A01 T00721009  RH  057%=      5-min Rain = 0
KREE 171145Z 01017G22KT 07/M01 A3007 RMK A01 T00711008  RH  058%=      5-min Rain = 0
KREE 171150Z 01017G22KT 07/M01 A3007 RMK A01 T00721008  RH  058%=      5-min Rain = 0
KREE 171155Z 01017G23KT 07/M01 A3007 RMK A01 T00711008  RH  058%=      5-min Rain = 0
KREE 171200Z 01016G21KT 07/M01 A3007 RMK A01 T00691007  RH  059%=      5-min Rain = 0
KREE 171205Z 01015KT 07/M01 A3008 RMK A01 T00681007  RH  059%=      5-min Rain = 0
KREE 171210Z 01016KT 07/M01 A3008 RMK A01 T00671007  RH  060%=      5-min Rain = 0
KREE 171215Z 01015G22KT 07/M01 A3008 RMK A01 T00661006  RH  060%=      5-min Rain = 0
KREE 171220Z 00016G24KT 07/M01 A3009 RMK A01 T00661006  RH  061%=      5-min Rain = 0
KREE 171225Z 00016KT 07/M01 A3009 RMK A01 T00661006  RH  061%=      5-min Rain = 0
KREE 171230Z 01016KT 06/M01 A301 RMK A01 T00641006  RH  061%=      5-min Rain = 0
KREE 171235Z 01015G21KT 06/M01 A301 RMK A01 T00631006  RH  062%=      5-min Rain = 0
KREE 171240Z 01015KT 06/M01 A3011 RMK A01 T00631005  RH  062%=      5-min Rain = 0
KREE 171245Z 01016KT 06/M01 A3011 RMK A01 T00621005  RH  063%=      5-min Rain = 0
KREE 171250Z 00015G21KT 06/M01 A3012 RMK A01 T00611005  RH  064%=      5-min Rain = 0
KREE 171255Z 00015G20KT 06/M00 A3012 RMK A01 T00601004  RH  064%=      5-min Rain = 0
KREE 171300Z 00016KT 06/M00 A3012 RMK A01 T00601004  RH  064%=      5-min Rain = 0
KREE 171305Z 01016G21KT 06/M00 A3013 RMK A01 T00581003  RH  065%=      5-min Rain = 0
KREE 171310Z 01017G22KT 06/M00 A3013 RMK A01 T00591002  RH  066%=      5-min Rain = 0
KREE 171315Z 01016KT 06/M00 A3013 RMK A01 T00581002  RH  066%=      5-min Rain = 0
KREE 171320Z 01017G22KT 06/M00 A3014 RMK A01 T00581001  RH  067%=      5-min Rain = 0
KREE 171325Z 01015KT 06/00 A3014 RMK A01 T005800-0  RH  067%=      5-min Rain = 0
KREE 171330Z 01015G21KT 06/00 A3014 RMK A01 T00570001  RH  068%=      5-min Rain = 0
KREE 171335Z 01015KT 06/00 A3015 RMK A01 T00570001  RH  068%=      5-min Rain = 0
KREE 171340Z 01015G20KT 06/00 A3015 RMK A01 T00580002  RH  068%=      5-min Rain = 0
KREE 171345Z 01015KT 06/00 A3015 RMK A01 T00590003  RH  068%=      5-min Rain = 0
KREE 171350Z 01016G21KT 06/00 A3015 RMK A01 T00600003  RH  068%=      5-min Rain = 0
KREE 171355Z 01015G20KT 06/00 A3015 RMK A01 T00610004  RH  068%=      5-min Rain = 0
KREE 171400Z 01015G21KT 06/00 A3016 RMK A01 T00610004  RH  068%=      5-min Rain = 0
KREE 171405Z 01015G22KT 06/01 A3016 RMK A01 T00620005  RH  068%=      5-min Rain = 0
KREE 171410Z 01015G20KT 06/01 A3017 RMK A01 T00630005  RH  067%=      5-min Rain = 0
KREE 171415Z 01016G22KT 07/01 A3017 RMK A01 T00650006  RH  067%=      5-min Rain = 0
KREE 171420Z 01017KT 07/01 A3017 RMK A01 T00660006  RH  066%=      5-min Rain = 0
KREE 171425Z 00017G24KT 07/01 A3017 RMK A01 T00680007  RH  066%=      5-min Rain = 0
KREE 171430Z 01015G21KT 07/01 A3017 RMK A01 T00690007  RH  065%=      5-min Rain = 0
KREE 171435Z 01015G21KT 07/01 A3018 RMK A01 T00710008  RH  065%=      5-min Rain = 0
KREE 171440Z 01015KT 07/01 A3018 RMK A01 T00710007  RH  064%=      5-min Rain = 0
KREE 171445Z 01016KT 07/01 A3018 RMK A01 T00720008  RH  064%=      5-min Rain = 0
KREE 171450Z 01014G22KT 08/01 A3018 RMK A01 T00750008  RH  063%=      5-min Rain = 0
KREE 171455Z 01016G22KT 08/01 A3018 RMK A01 T00750008  RH  063%=      5-min Rain = 0
KREE 171500Z 01017G22KT 08/01 A3019 RMK A01 T00760008  RH  063%=      5-min Rain = 0
KREE 171505Z 01016G21KT 08/01 A3019 RMK A01 T00790009  RH  062%=      5-min Rain = 0
KREE 171510Z 01017G23KT 08/01 A3019 RMK A01 T00810009  RH  061%=      5-min Rain = 0
KREE 171515Z 02017G22KT 08/01 A3019 RMK A01 T00830009  RH  060%=      5-min Rain = 0
KREE 171520Z 02017G24KT 08/01 A3019 RMK A01 T00840010  RH  060%=      5-min Rain = 0
KREE 171525Z 02018G23KT 09/01 A3019 RMK A01 T00870010  RH  059%=      5-min Rain = 0
KREE 171530Z 02017G23KT 09/01 A3019 RMK A01 T00870010  RH  059%=      5-min Rain = 0
KREE 171535Z 02019G25KT 09/01 A3019 RMK A01 T00880009  RH  058%=      5-min Rain = 0
KREE 171540Z 02019G25KT 09/01 A3019 RMK A01 T00890009  RH  058%=      5-min Rain = 0
KREE 171545Z 02020KT 09/01 A3019 RMK A01 T00900009  RH  057%=      5-min Rain = 0
KREE 171550Z 02019KT 09/01 A3019 RMK A01 T00910009  RH  057%=      5-min Rain = 0
KREE 171555Z 02018KT 10/01 A302 RMK A01 T00950010  RH  056%=      5-min Rain = 0
KREE 171600Z 02017G23KT 10/01 A302 RMK A01 T00960010  RH  056%=      5-min Rain = 0
KREE 171605Z 02016G22KT 10/01 A302 RMK A01 T01020012  RH  054%=      5-min Rain = 0
KREE 171610Z 01017KT 10/01 A302 RMK A01 T01010011  RH  054%=      5-min Rain = 0
KREE 171615Z 02016G21KT 10/01 A3019 RMK A01 T01020012  RH  054%=      5-min Rain = 0
KREE 171620Z 01016KT 10/01 A3019 RMK A01 T01030012  RH  054%=      5-min Rain = 0
KREE 171625Z 01017G22KT 11/01 A3019 RMK A01 T01050012  RH  053%=      5-min Rain = 0
KREE 171630Z 03015G21KT 11/01 A302 RMK A01 T01090012  RH  052%=      5-min Rain = 0
KREE 171635Z 02017KT 11/01 A302 RMK A01 T01080011  RH  052%=      5-min Rain = 0
KREE 171640Z 02014KT 11/01 A302 RMK A01 T01110013  RH  052%=      5-min Rain = 0
KREE 171645Z 02013KT 12/02 A302 RMK A01 T01160015  RH  050%=      5-min Rain = 0
KREE 171650Z 01015KT 12/01 A302 RMK A01 T01160014  RH  050%=      5-min Rain = 0
KREE 171655Z 01016G21KT 12/01 A3019 RMK A01 T01150013  RH  050%=      5-min Rain = 0
KREE 171700Z 02017G22KT 12/01 A3019 RMK A01 T01150013  RH  050%=      5-min Rain = 0
KREE 171705Z 02015KT 12/01 A3019 RMK A01 T01170013  RH  049%=      5-min Rain = 0
KREE 171710Z 00015KT 12/01 A3019 RMK A01 T01180014  RH  049%=      5-min Rain = 0
KREE 171715Z 01014G19KT 12/02 A3018 RMK A01 T01230015  RH  048%=      5-min Rain = 0
KREE 171720Z 01014G19KT 13/01 A3018 RMK A01 T01250014  RH  047%=      5-min Rain = 0
KREE 171725Z 01014KT 13/02 A3018 RMK A01 T01250015  RH  047%=      5-min Rain = 0
KREE 171730Z 00014G19KT 13/02 A3018 RMK A01 T01280015  RH  047%=      5-min Rain = 0
KREE 171735Z 36016KT 13/01 A3018 RMK A01 T01270014  RH  047%=      5-min Rain = 0
KREE 171740Z 01013G18KT 13/02 A3018 RMK A01 T01300015  RH  046%=      5-min Rain = 0
KREE 171745Z 01013KT 13/02 A3017 RMK A01 T01330016  RH  045%=      5-min Rain = 0
KREE 171750Z 02013G18KT 14/02 A3017 RMK A01 T01360016  RH  044%=      5-min Rain = 0
KREE 171755Z 36013G18KT 13/02 A3017 RMK A01 T01330015  RH  045%=      5-min Rain = 0
KREE 171800Z 01015KT 14/02 A3017 RMK A01 T01370016  RH  044%=      5-min Rain = 0
KREE 171805Z 01015KT 14/02 A3016 RMK A01 T01360015  RH  044%=      5-min Rain = 0
KREE 171810Z 00014KT 14/02 A3016 RMK A01 T01370015  RH  044%=      5-min Rain = 0
KREE 171815Z 01014G19KT 14/02 A3016 RMK A01 T01380016  RH  044%=      5-min Rain = 0
KREE 171820Z 01014G20KT 14/02 A3016 RMK A01 T01420015  RH  043%=      5-min Rain = 0
KREE 171825Z 01013G18KT 14/02 A3015 RMK A01 T01420016  RH  043%=      5-min Rain = 0
KREE 171830Z 00013G18KT 14/02 A3015 RMK A01 T01430016  RH  042%=      5-min Rain = 0
KREE 171835Z 01013G19KT 15/02 A3015 RMK A01 T01460016  RH  042%=      5-min Rain = 0
KREE 171840Z 01012KT 15/02 A3015 RMK A01 T01480017  RH  042%=      5-min Rain = 0
KREE 171845Z 02013G19KT 15/02 A3015 RMK A01 T01470015  RH  041%=      5-min Rain = 0
KREE 171850Z 00012KT 15/02 A3014 RMK A01 T01470017  RH  042%=      5-min Rain = 0
KREE 171855Z 01013G18KT 15/02 A3015 RMK A01 T01490015  RH  041%=      5-min Rain = 0
KREE 171900Z 03012G17KT 15/02 A3014 RMK A01 T01500015  RH  040%=      5-min Rain = 0
KREE 171905Z 01012KT 15/02 A3014 RMK A01 T01510017  RH  041%=      5-min Rain = 0
KREE 171910Z 02013G19KT 16/02 A3014 RMK A01 T01550016  RH  039%=      5-min Rain = 0
KREE 171915Z 03014G22KT 15/01 A3014 RMK A01 T01530013  RH  039%=      5-min Rain = 0
KREE 171920Z 01013KT 15/02 A3015 RMK A01 T01540015  RH  039%=      5-min Rain = 0
KREE 171925Z 03013KT 15/01 A3014 RMK A01 T01540014  RH  039%=      5-min Rain = 0
KREE 171930Z 01013G18KT 16/02 A3014 RMK A01 T01570017  RH  039%=      5-min Rain = 0
KREE 171935Z 02012G19KT 15/01 A3014 RMK A01 T01540014  RH  039%=      5-min Rain = 0
KREE 171940Z 02011KT 16/02 A3014 RMK A01 T01560015  RH  039%=      5-min Rain = 0
KREE 171945Z 02014KT 16/02 A3014 RMK A01 T01570015  RH  039%=      5-min Rain = 0
KREE 171950Z 01013G19KT 16/02 A3014 RMK A01 T01560015  RH  039%=      5-min Rain = 0
KREE 171955Z 02015KT 16/02 A3013 RMK A01 T01560015  RH  039%=      5-min Rain = 0
KREE 172000Z 01013KT 16/02 A3013 RMK A01 T01570015  RH  039%=      5-min Rain = 0
KREE 172005Z 01013G18KT 16/02 A3013 RMK A01 T01570015  RH  039%=      5-min Rain = 0
KREE 172010Z 01012G18KT 16/02 A3013 RMK A01 T01560015  RH  039%=      5-min Rain = 0
KREE 172015Z 03011KT 16/01 A3013 RMK A01 T01550014  RH  039%=      5-min Rain = 0
KREE 172020Z 03010KT 16/01 A3013 RMK A01 T01560014  RH  039%=      5-min Rain = 0
KREE 172025Z 01009G16KT 16/02 A3012 RMK A01 T01580015  RH  039%=      5-min Rain = 0
KREE 172030Z 03008KT 16/01 A3012 RMK A01 T01570014  RH  038%=      5-min Rain = 0
KREE 172035Z 05007KT 15/01 A3011 RMK A01 T01530014  RH  039%=      5-min Rain = 0
KREE 172040Z 02007KT 16/02 A3011 RMK A01 T01570016  RH  039%=      5-min Rain = 0
KREE 172045Z 00007KT 16/01 A3011 RMK A01 T01570014  RH  038%=      5-min Rain = 0
KREE 172050Z 00006KT 16/01 A3011 RMK A01 T01560014  RH  038%=      5-min Rain = 0
KREE 172055Z 01004KT 16/01 A3011 RMK A01 T01560014  RH  039%=      5-min Rain = 0
KREE 172100Z 02006KT 16/01 A3011 RMK A01 T01580013  RH  038%=      5-min Rain = 0
KREE 172105Z 04005KT 16/01 A3011 RMK A01 T01570011  RH  038%=      5-min Rain = 0
KREE 172110Z 02005G10KT 16/01 A301 RMK A01 T01590013  RH  038%=      5-min Rain = 0
KREE 172115Z 03006KT 16/01 A301 RMK A01 T01590014  RH  038%=      5-min Rain = 0
KREE 172120Z 06003KT 16/01 A301 RMK A01 T01570014  RH  038%=      5-min Rain = 0
KREE 172125Z 07004KT 16/01 A301 RMK A01 T01560014  RH  039%=      5-min Rain = 0
KREE 172130Z 09003KT 16/01 A301 RMK A01 T01550014  RH  039%=      5-min Rain = 0
KREE 172135Z 13001KT 16/01 A301 RMK A01 T01580014  RH  038%=      5-min Rain = 0
KREE 172140Z 34003KT 16/01 A301 RMK A01 T01620014  RH  037%=      5-min Rain = 0
KREE 172145Z 00004KT 16/01 A301 RMK A01 T01590011  RH  037%=      5-min Rain = 0
KREE 172150Z 01003KT 16/01 A301 RMK A01 T01610011  RH  037%=      5-min Rain = 0
KREE 172155Z 06004KT 16/01 A301 RMK A01 T01590011  RH  037%=      5-min Rain = 0
KREE 172200Z 06004KT 16/01 A301 RMK A01 T01580010  RH  037%=      5-min Rain = 0
KREE 172205Z 03005KT 16/01 A301 RMK A01 T01580010  RH  037%=      5-min Rain = 0
KREE 172210Z 35003KT 16/01 A301 RMK A01 T01590011  RH  037%=      5-min Rain = 0
KREE 172215Z 32003KT 16/01 A301 RMK A01 T01570010  RH  037%=      5-min Rain = 0
KREE 172220Z 01003KT 16/01 A301 RMK A01 T01600012  RH  037%=      5-min Rain = 0
KREE 172225Z 34001KT 16/01 A301 RMK A01 T01580011  RH  037%=      5-min Rain = 0
KREE 172230Z 35001KT 16/01 A301 RMK A01 T01610012  RH  037%=      5-min Rain = 0
KREE 172235Z 19000KT 16/01 A301 RMK A01 T01620011  RH  036%=      5-min Rain = 0
KREE 172240Z 03002KT 16/01 A301 RMK A01 T01630012  RH  036%=      5-min Rain = 0
KREE 172245Z 03003KT 16/01 A301 RMK A01 T01580012  RH  038%=      5-min Rain = 0
KREE 172250Z 05002KT 16/01 A301 RMK A01 T01580012  RH  038%=      5-min Rain = 0
KREE 172255Z 07003KT 15/01 A3009 RMK A01 T01540010  RH  038%=      5-min Rain = 0
KREE 172300Z 04002KT 15/01 A3009 RMK A01 T01540011  RH  038%=      5-min Rain = 0
KREE 172305Z 35002KT 15/01 A301 RMK A01 T01540011  RH  039%=      5-min Rain = 0
KREE 172310Z 31001KT 15/01 A301 RMK A01 T01530011  RH  039%=      5-min Rain = 0
KREE 172315Z 28001KT 16/01 A301 RMK A01 T01550011  RH  038%=      5-min Rain = 0
KREE 172320Z 31002KT 15/01 A301 RMK A01 T01490012  RH  040%=      5-min Rain = 0
KREE 172325Z 31001KT 14/01 A301 RMK A01 T01440012  RH  041%=      5-min Rain = 0
KREE 172330Z 33001KT 14/01 A301 RMK A01 T01410011  RH  042%=      5-min Rain = 0
KREE 172335Z 33001KT 14/01 A301 RMK A01 T01390011  RH  042%=      5-min Rain = 0
KREE 172340Z 28000KT 14/01 A3011 RMK A01 T01360010  RH  043%=      5-min Rain = 0
KREE 172345Z 29001KT 14/01 A3011 RMK A01 T01350010  RH  043%=      5-min Rain = 0
KREE 172350Z 28002KT 13/01 A3011 RMK A01 T01300009  RH  044%=      5-min Rain = 0
KREE 172355Z 29001KT 12/01 A3011 RMK A01 T01210008  RH  046%=      5-min Rain = 0
KREE 180000Z 31002KT 12/01 A301 RMK A01 T01200009  RH  047%=      5-min Rain = 0
KREE 180005Z 31002KT 12/01 A3011 RMK A01 T01200008  RH  047%=      5-min Rain = 0
KREE 180010Z 32002KT 12/01 A3011 RMK A01 T01190009  RH  047%=      5-min Rain = 0
KREE 180015Z 33002KT 12/01 A3011 RMK A01 T01180008  RH  047%=      5-min Rain = 0
KREE 180020Z 33002KT 11/01 A3011 RMK A01 T01140008  RH  048%=      5-min Rain = 0
KREE 180025Z 33001KT 11/01 A3011 RMK A01 T01120008  RH  049%=      5-min Rain = 0
KREE 180030Z 32001KT 11/01 A3011 RMK A01 T01130009  RH  049%=      5-min Rain = 0
KREE 180035Z 28000KT 11/01 A3011 RMK A01 T01110008  RH  050%=      5-min Rain = 0
KREE 180040Z 00000KT 12/01 A3011 RMK A01 T01160010  RH  049%=      5-min Rain = 0
KREE 180045Z 00000KT 12/01 A3011 RMK A01 T01180010  RH  048%=      5-min Rain = 0
KREE 180050Z 00000KT 12/01 A3011 RMK A01 T01150009  RH  049%=      5-min Rain = 0
KREE 180055Z 00000KT 12/01 A3011 RMK A01 T01150009  RH  049%=      5-min Rain = 0
KREE 180100Z 00000KT 11/01 A3011 RMK A01 T01100008  RH  050%=      5-min Rain = 0
KREE 180105Z 00000KT 11/01 A3011 RMK A01 T01070008  RH  051%=      5-min Rain = 0
KREE 180110Z 19001KT 11/01 A3011 RMK A01 T01060006  RH  051%=      5-min Rain = 0
KREE 180115Z 19001KT 09/00 A3011 RMK A01 T00920002  RH  054%=      5-min Rain = 0
KREE 180120Z 19001KT 09/00 A3011 RMK A01 T00870004  RH  056%=      5-min Rain = 0
KREE 180125Z 18002KT 09/01 A3011 RMK A01 T00870005  RH  057%=      5-min Rain = 0
KREE 180130Z 20002KT 08/00 A3011 RMK A01 T00830002  RH  057%=      5-min Rain = 0
KREE 180135Z 19002KT 08/00 A3011 RMK A01 T00790002  RH  059%=      5-min Rain = 0
KREE 180140Z 18002KT 08/00 A3011 RMK A01 T00800004  RH  059%=      5-min Rain = 0
KREE 180145Z 17002KT 08/01 A3011 RMK A01 T00820005  RH  059%=      5-min Rain = 0
KREE 180150Z 16001KT 09/01 A3011 RMK A01 T00870007  RH  058%=      5-min Rain = 0
KREE 180155Z 16001KT 09/01 A3011 RMK A01 T00880005  RH  057%=      5-min Rain = 0
KREE 180200Z 16002KT 09/01 A3011 RMK A01 T00870005  RH  057%=      5-min Rain = 0
KREE 180205Z 15002KT 09/01 A3011 RMK A01 T00850005  RH  058%=      5-min Rain = 0
KREE 180210Z 15003KT 08/00 A3011 RMK A01 T00840004  RH  058%=      5-min Rain = 0
KREE 180215Z 15003KT 08/00 A3011 RMK A01 T00820004  RH  059%=      5-min Rain = 0
KREE 180220Z 15002KT 08/00 A3012 RMK A01 T00810004  RH  059%=      5-min Rain = 0
KREE 180225Z 14002KT 08/01 A3012 RMK A01 T00810006  RH  060%=      5-min Rain = 0
KREE 180230Z 13002KT 09/01 A3012 RMK A01 T00850009  RH  060%=      5-min Rain = 0
KREE 180235Z 14002KT 08/01 A3012 RMK A01 T00830008  RH  060%=      5-min Rain = 0
KREE 180240Z 16003KT 08/01 A3012 RMK A01 T00790006  RH  061%=      5-min Rain = 0
KREE 180245Z 17003KT 08/01 A3012 RMK A01 T00760005  RH  061%=      5-min Rain = 0
KREE 180250Z 16003KT 07/00 A3012 RMK A01 T00740003  RH  061%=      5-min Rain = 0
KREE 180255Z 15003KT 07/01 A3012 RMK A01 T00740005  RH  062%=      5-min Rain = 0
KREE 180300Z 13002KT 08/01 A3012 RMK A01 T00760006  RH  062%=      5-min Rain = 0
KREE 180305Z 11002KT 08/01 A3012 RMK A01 T00790009  RH  062%=      5-min Rain = 0
KREE 180310Z 12002KT 08/01 A3012 RMK A01 T00820009  RH  061%=      5-min Rain = 0
KREE 180315Z 15002KT 08/01 A3012 RMK A01 T00820008  RH  060%=      5-min Rain = 0
KREE 180320Z 16002KT 08/00 A3011 RMK A01 T00780004  RH  060%=      5-min Rain = 0
KREE 180325Z 17003KT 07/00 A3011 RMK A01 T00680000  RH  063%=      5-min Rain = 0
KREE 180330Z 17002KT 06/00 A3011 RMK A01 T00640001  RH  065%=      5-min Rain = 0
KREE 180335Z 18003KT 06/M00 A3011 RMK A01 T00591001  RH  066%=      5-min Rain = 0
KREE 180340Z 18004KT 05/M00 A3011 RMK A01 T00531004  RH  067%=      5-min Rain = 0
KREE 180345Z 19004KT 05/M00 A3011 RMK A01 T00481003  RH  070%=      5-min Rain = 0
KREE 180350Z 20004KT 05/M00 A3011 RMK A01 T00471002  RH  071%=      5-min Rain = 0
KREE 180355Z 21004KT 05/M00 A3011 RMK A01 T00461001  RH  072%=      5-min Rain = 0
KREE 180400Z 21005KT 04/M00 A3011 RMK A01 T00421003  RH  073%=      5-min Rain = 0
KREE 180405Z 21006KT 04/M00 A3011 RMK A01 T00411003  RH  074%=      5-min Rain = 0
KREE 180410Z 22005KT 04/M00 A3011 RMK A01 T00421003  RH  074%=      5-min Rain = 0
KREE 180415Z 21005KT 04/M00 A3011 RMK A01 T00411002  RH  074%=      5-min Rain = 0
KREE 180420Z 21004KT 04/M00 A3011 RMK A01 T00421001  RH  074%=      5-min Rain = 0
KREE 180425Z 21004KT 05/00 A3011 RMK A01 T004500-0  RH  073%=      5-min Rain = 0
KREE 180430Z 21005KT 04/M00 A301 RMK A01 T00431003  RH  073%=      5-min Rain = 0
KREE 180435Z 21004KT 04/M00 A3011 RMK A01 T00411003  RH  074%=      5-min Rain = 0
KREE 180440Z 22005KT 04/M00 A3011 RMK A01 T00401004  RH  074%=      5-min Rain = 0
KREE 180445Z 22006KT 04/M00 A3011 RMK A01 T00401003  RH  074%=      5-min Rain = 0
KREE 180450Z 21006KT 04/M00 A3011 RMK A01 T00401003  RH  074%=      5-min Rain = 0
KREE 180455Z 21005KT 04/M00 A3011 RMK A01 T00401003  RH  075%=      5-min Rain = 0
KREE 180500Z 22005KT 04/M00 A301 RMK A01 T00421002  RH  074%=      5-min Rain = 0
KREE 180505Z 21005KT 04/M00 A301 RMK A01 T00411003  RH  074%=      5-min Rain = 0
KREE 180510Z 22005KT 04/M00 A301 RMK A01 T00411003  RH  074%=      5-min Rain = 0
KREE 180515Z 22005KT 04/M00 A301 RMK A01 T00431002  RH  073%=      5-min Rain = 0
KREE 180520Z 23005KT 04/M00 A301 RMK A01 T00431002  RH  073%=      5-min Rain = 0
KREE 180525Z 23005KT 04/M00 A301 RMK A01 T00421003  RH  074%=      5-min Rain = 0
KREE 180530Z 23005KT 04/M00 A3009 RMK A01 T00411003  RH  074%=      5-min Rain = 0
KREE 180535Z 23005KT 04/M00 A3009 RMK A01 T00381004  RH  075%=      5-min Rain = 0
KREE 180540Z 23005KT 04/M01 A3009 RMK A01 T00361005  RH  076%=      5-min Rain = 0
KREE 180545Z 23005KT 04/M00 A3009 RMK A01 T00371004  RH  076%=      5-min Rain = 0
KREE 180550Z 23005KT 04/M00 A3009 RMK A01 T00371004  RH  075%=      5-min Rain = 0
KREE 180555Z 23006KT 04/M00 A3009 RMK A01 T00351004  RH  076%=      5-min Rain = 0

Page generated in 0.009 seconds.